Time;durP1;ratioP1;P1;durP2;ratioP2;P2;SDS_P1;SDS_P2;PMS_P1;PMS_P2;Temp;Humidity;BMP_temperature;BMP_pressure;BME280_temperature;BME280_humidity;BME280_pressure;Samples;Min_cycle;Max_cycle;Signal;HPM_P1;HPM_P2
2023/02/02 00:00:37;;;;;;;31.40;14.17;;;;;;;;;;5116795;27;20423;-66
2023/02/02 00:03:03;;;;;;;31.73;14.53;;;;;;;;;;5083043;27;20031;-65
2023/02/02 00:05:28;;;;;;;31.33;13.30;;;;;;;;;;5099822;27;20499;-65
2023/02/02 00:07:54;;;;;;;31.87;14.37;;;;;;;;;;5116925;27;20035;-64
2023/02/02 00:10:20;;;;;;;37.63;14.07;;;;;;;;;;5101099;27;20035;-65
2023/02/02 00:12:45;;;;;;;29.87;13.17;;;;;;;;;;5117820;27;20118;-65
2023/02/02 00:15:11;;;;;;;31.80;13.57;;;;;;;;;;5100733;27;20141;-65
2023/02/02 00:17:36;;;;;;;34.87;14.03;;;;;;;;;;5083626;27;20122;-65
2023/02/02 00:20:02;;;;;;;31.50;13.93;;;;;;;;;;5100242;27;20035;-66
2023/02/02 00:22:28;;;;;;;29.70;13.67;;;;;;;;;;5117536;27;20433;-64
2023/02/02 00:24:54;;;;;;;28.73;13.77;;;;;;;;;;5117575;27;20073;-66
2023/02/02 00:27:20;;;;;;;27.13;13.67;;;;;;;;;;5100828;27;20385;-65
2023/02/02 00:29:45;;;;;;;33.93;13.93;;;;;;;;;;5100335;27;20039;-65
2023/02/02 00:32:11;;;;;;;29.67;13.03;;;;;;;;;;5100106;27;20141;-65
2023/02/02 00:34:36;;;;;;;27.37;12.70;;;;;;;;;;5100272;27;20027;-65
2023/02/02 00:37:04;;;;;;;30.00;13.37;;;;;;;;;;5100392;27;20058;-65
2023/02/02 00:39:31;;;;;;;28.13;12.70;;;;;;;;;;5134419;27;20039;-65
2023/02/02 00:41:56;;;;;;;30.80;14.67;;;;;;;;;;5100171;27;20039;-65
2023/02/02 00:47:06;;;;;;;34.33;14.20;;;;;;;;;;5116956;27;20059;-66
2023/02/02 00:49:32;;;;;;;27.67;13.40;;;;;;;;;;5116981;27;20127;-65
2023/02/02 00:51:59;;;;;;;32.27;13.90;;;;;;;;;;5099765;27;20034;-65
2023/02/02 00:54:24;;;;;;;28.80;12.53;;;;;;;;;;5100306;27;20039;-68
2023/02/02 00:56:50;;;;;;;35.20;13.37;;;;;;;;;;5083411;27;20373;-65
2023/02/02 00:59:17;;;;;;;28.07;13.43;;;;;;;;;;5099931;27;20380;-64
2023/02/02 01:01:44;;;;;;;28.50;12.37;;;;;;;;;;5099905;27;20452;-64
2023/02/02 01:04:09;;;;;;;29.63;12.30;;;;;;;;;;5083014;27;20031;-66
2023/02/02 01:06:35;;;;;;;30.37;13.17;;;;;;;;;;5117081;27;20042;-65
2023/02/02 01:09:01;;;;;;;30.73;13.33;;;;;;;;;;5099703;27;20043;-65
2023/02/02 01:11:26;;;;;;;31.07;12.50;;;;;;;;;;5099763;27;20134;-66
2023/02/02 01:13:52;;;;;;;31.53;13.10;;;;;;;;;;5082840;27;20358;-66
2023/02/02 01:16:17;;;;;;;30.10;11.73;;;;;;;;;;5099728;27;20063;-65
2023/02/02 01:18:43;;;;;;;22.47;10.40;;;;;;;;;;5116534;27;20121;-65
2023/02/02 01:21:10;;;;;;;31.43;13.40;;;;;;;;;;5099346;27;20027;-64
2023/02/02 01:23:37;;;;;;;28.43;12.37;;;;;;;;;;5133442;27;20038;-65
2023/02/02 01:26:04;;;;;;;29.33;12.03;;;;;;;;;;5116339;27;20035;-65
2023/02/02 01:28:31;;;;;;;32.97;13.20;;;;;;;;;;5116278;27;20038;-65
2023/02/02 01:30:57;;;;;;;31.03;13.47;;;;;;;;;;5116591;27;20489;-68
2023/02/02 01:33:23;;;;;;;28.80;12.67;;;;;;;;;;5116363;27;20055;-65
2023/02/02 01:35:50;;;;;;;29.57;12.33;;;;;;;;;;5116467;27;20627;-65
2023/02/02 01:38:15;;;;;;;31.07;12.97;;;;;;;;;;5116203;27;20050;-65
2023/02/02 01:40:47;;;;;;;30.37;12.83;;;;;;;;;;5098959;27;20035;-65
2023/02/02 01:43:23;;;;;;;33.13;13.20;;;;;;;;;;5115863;27;20138;-64
2023/02/02 01:45:50;;;;;;;25.87;11.87;;;;;;;;;;5133224;27;20051;-65
2023/02/02 01:48:17;;;;;;;26.27;12.33;;;;;;;;;;5098876;27;20083;-65
2023/02/02 01:50:46;;;;;;;33.37;12.73;;;;;;;;;;5098656;27;20027;-66
2023/02/02 01:53:12;;;;;;;27.93;12.17;;;;;;;;;;5098148;27;20043;-65
2023/02/02 01:55:40;;;;;;;24.50;11.67;;;;;;;;;;5098979;27;20031;-64
2023/02/02 01:58:11;;;;;;;24.93;11.43;;;;;;;;;;5115771;27;20035;-64
2023/02/02 02:00:38;;;;;;;24.90;11.73;;;;;;;;;;5098618;27;20027;-65
2023/02/02 02:03:07;;;;;;;26.83;11.43;;;;;;;;;;5115812;27;20043;-65
2023/02/02 02:05:35;;;;;;;18.70;10.23;;;;;;;;;;5098536;27;20593;-65
2023/02/02 02:08:09;;;;;;;22.95;10.88;;;;;;;;;;5115825;27;20117;-65
2023/02/02 02:10:35;;;;;;;20.90;9.87;;;;;;;;;;5132909;27;20468;-65
2023/02/02 02:13:02;;;;;;;25.27;10.53;;;;;;;;;;5115473;27;20141;-65
2023/02/02 02:18:16;;;;;;;18.47;9.10;;;;;;;;;;5111949;28;20089;-65
2023/02/02 02:26:35;;;;;;;20.60;9.43;;;;;;;;;;5111628;28;20035;-64
2023/02/02 02:29:22;;;;;;;24.80;9.93;;;;;;;;;;5111782;28;20062;-64
2023/02/02 02:32:07;;;;;;;22.17;10.63;;;;;;;;;;5094595;28;20483;-64
2023/02/02 02:34:53;;;;;;;24.40;10.67;;;;;;;;;;5094803;28;20039;-65
2023/02/02 02:37:23;;;;;;;27.30;10.83;;;;;;;;;;5094673;28;20039;-65
2023/02/02 02:40:12;;;;;;;21.47;9.70;;;;;;;;;;5077956;28;20043;-66
2023/02/02 02:42:42;;;;;;;27.10;11.03;;;;;;;;;;5086891;28;20047;-68
2023/02/02 02:45:09;;;;;;;23.00;10.47;;;;;;;;;;5094508;28;20468;-67
2023/02/02 02:47:36;;;;;;;23.07;10.70;;;;;;;;;;5077724;28;20027;-69
2023/02/02 02:50:02;;;;;;;25.60;11.30;;;;;;;;;;5111498;28;20043;-70
2023/02/02 02:52:29;;;;;;;31.17;12.03;;;;;;;;;;5128573;27;20093;-69
2023/02/02 02:54:55;;;;;;;26.00;11.57;;;;;;;;;;5094561;28;20039;-69
2023/02/02 02:57:40;;;;;;;32.10;11.93;;;;;;;;;;5094538;28;20043;-71
2023/02/02 03:00:27;;;;;;;24.97;11.30;;;;;;;;;;5077716;28;20027;-69
2023/02/02 03:03:11;;;;;;;30.50;12.10;;;;;;;;;;5057998;28;20047;-70
2023/02/02 03:05:51;;;;;;;25.63;12.33;;;;;;;;;;5058528;28;20039;-69
2023/02/02 03:08:28;;;;;;;30.60;12.70;;;;;;;;;;5060544;28;20084;-69
2023/02/02 03:10:55;;;;;;;23.07;11.40;;;;;;;;;;5077403;28;20473;-69
2023/02/02 03:13:21;;;;;;;30.27;13.40;;;;;;;;;;5062617;27;20043;-69
2023/02/02 03:15:46;;;;;;;27.43;11.77;;;;;;;;;;5101312;27;20027;-69
2023/02/02 03:18:14;;;;;;;30.43;13.13;;;;;;;;;;5101305;27;20035;-69
2023/02/02 03:20:40;;;;;;;34.17;13.63;;;;;;;;;;5100905;27;20460;-69
2023/02/02 03:23:06;;;;;;;32.20;13.30;;;;;;;;;;5100888;27;20505;-70
2023/02/02 03:25:32;;;;;;;33.53;13.47;;;;;;;;;;5100977;27;20023;-69
2023/02/02 03:27:58;;;;;;;32.53;12.70;;;;;;;;;;5100790;27;20080;-69
2023/02/02 03:30:24;;;;;;;33.83;14.10;;;;;;;;;;5100607;27;20062;-69
2023/02/02 03:32:51;;;;;;;32.97;15.10;;;;;;;;;;5100113;27;20164;-69
2023/02/02 03:35:16;;;;;;;39.43;16.23;;;;;;;;;;5116946;27;20035;-69
2023/02/02 03:37:42;;;;;;;43.97;17.90;;;;;;;;;;5100165;27;20500;-69
2023/02/02 03:40:08;;;;;;;45.90;17.63;;;;;;;;;;5117056;27;20038;-69
2023/02/02 03:42:33;;;;;;;45.23;18.17;;;;;;;;;;5100276;27;20076;-69
2023/02/02 03:44:59;;;;;;;44.93;18.17;;;;;;;;;;5100376;27;20034;-69
2023/02/02 03:47:27;;;;;;;43.63;18.90;;;;;;;;;;5100065;27;20078;-69
2023/02/02 03:49:52;;;;;;;47.67;18.10;;;;;;;;;;5099998;27;20035;-69
2023/02/02 03:52:18;;;;;;;44.20;17.97;;;;;;;;;;5098458;27;20054;-69
2023/02/02 03:54:43;;;;;;;44.07;18.00;;;;;;;;;;5099732;27;20465;-69
2023/02/02 03:57:09;;;;;;;48.70;18.47;;;;;;;;;;5100016;27;20091;-71
2023/02/02 03:59:35;;;;;;;48.70;17.47;;;;;;;;;;5116932;27;20066;-72
2023/02/02 04:02:00;;;;;;;43.60;18.10;;;;;;;;;;5099669;27;20039;-70
2023/02/02 04:04:26;;;;;;;43.97;18.17;;;;;;;;;;5099639;27;20376;-70
2023/02/02 04:06:51;;;;;;;44.57;18.27;;;;;;;;;;5099923;27;20502;-69
2023/02/02 04:09:17;;;;;;;48.87;18.90;;;;;;;;;;5082714;27;20027;-70
2023/02/02 04:11:42;;;;;;;44.90;17.53;;;;;;;;;;5096995;27;20131;-71
2023/02/02 04:14:08;;;;;;;45.17;17.67;;;;;;;;;;5097395;27;20065;-71
2023/02/02 04:16:36;;;;;;;40.97;16.70;;;;;;;;;;5098301;27;20449;-69
2023/02/02 04:19:02;;;;;;;50.50;19.20;;;;;;;;;;5115968;27;20035;-72
2023/02/02 04:21:28;;;;;;;44.37;17.37;;;;;;;;;;5116548;27;20047;-71
2023/02/02 04:23:54;;;;;;;38.23;16.03;;;;;;;;;;5134260;27;20134;-69
2023/02/02 04:26:20;;;;;;;40.73;18.10;;;;;;;;;;5099412;27;20399;-69
2023/02/02 04:28:45;;;;;;;41.60;17.10;;;;;;;;;;5099448;27;20188;-70
2023/02/02 04:31:12;;;;;;;42.63;16.93;;;;;;;;;;5115943;27;20031;-70
2023/02/02 04:33:37;;;;;;;45.47;16.53;;;;;;;;;;5099295;27;20510;-71
2023/02/02 04:36:03;;;;;;;46.00;18.17;;;;;;;;;;5100104;27;20084;-70
2023/02/02 04:38:29;;;;;;;47.40;18.27;;;;;;;;;;5099128;27;20041;-69
2023/02/02 04:40:54;;;;;;;43.00;16.33;;;;;;;;;;5099250;27;20038;-69
2023/02/02 04:43:20;;;;;;;47.17;17.10;;;;;;;;;;5099049;27;20031;-70
2023/02/02 04:45:45;;;;;;;44.17;16.60;;;;;;;;;;5099484;27;20485;-70
2023/02/02 04:48:11;;;;;;;43.87;17.93;;;;;;;;;;5099306;27;20031;-72
2023/02/02 04:50:36;;;;;;;39.23;16.67;;;;;;;;;;5082115;27;20039;-71
2023/02/02 04:53:02;;;;;;;35.00;15.03;;;;;;;;;;5098976;27;20054;-72
2023/02/02 04:55:30;;;;;;;37.50;15.80;;;;;;;;;;5098748;27;20036;-72
2023/02/02 04:57:56;;;;;;;39.23;15.70;;;;;;;;;;5097871;27;20400;-72
2023/02/02 05:00:21;;;;;;;41.07;16.23;;;;;;;;;;5098644;27;20042;-72
2023/02/02 05:02:47;;;;;;;32.67;15.00;;;;;;;;;;5097861;27;20095;-72
2023/02/02 05:05:13;;;;;;;40.30;16.30;;;;;;;;;;5098629;27;20030;-71
2023/02/02 05:07:39;;;;;;;35.20;15.67;;;;;;;;;;5096713;27;20541;-71
2023/02/02 05:10:05;;;;;;;38.60;15.63;;;;;;;;;;5094993;27;20033;-71
2023/02/02 05:12:31;;;;;;;37.60;16.13;;;;;;;;;;5095847;27;20043;-72
2023/02/02 05:14:59;;;;;;;35.37;15.10;;;;;;;;;;5080213;27;20123;-71
2023/02/02 05:17:25;;;;;;;32.20;13.70;;;;;;;;;;5096038;27;20031;-72
2023/02/02 05:19:51;;;;;;;39.57;15.10;;;;;;;;;;5096932;27;20027;-70
2023/02/02 05:22:17;;;;;;;33.90;14.40;;;;;;;;;;5097001;27;20499;-70
2023/02/02 05:24:42;;;;;;;35.47;15.37;;;;;;;;;;5096898;27;20041;-70
2023/02/02 05:27:08;;;;;;;34.00;14.30;;;;;;;;;;5095955;27;20062;-69
2023/02/02 05:29:33;;;;;;;40.27;16.13;;;;;;;;;;5112836;27;20035;-68
2023/02/02 05:31:59;;;;;;;32.00;14.03;;;;;;;;;;5094769;27;20461;-69
2023/02/02 05:34:25;;;;;;;46.20;16.00;;;;;;;;;;5096348;27;20042;-70
2023/02/02 05:36:51;;;;;;;32.97;13.40;;;;;;;;;;5096062;27;20038;-69
2023/02/02 05:39:17;;;;;;;35.87;15.87;;;;;;;;;;5094328;27;20147;-70
2023/02/02 05:41:42;;;;;;;34.90;14.83;;;;;;;;;;5096899;27;20130;-70
2023/02/02 05:44:10;;;;;;;30.80;13.47;;;;;;;;;;5113840;27;20445;-69
2023/02/02 05:46:36;;;;;;;32.23;14.33;;;;;;;;;;5113693;27;20065;-70
2023/02/02 05:49:03;;;;;;;35.07;15.03;;;;;;;;;;5095598;27;20059;-70
2023/02/02 05:51:34;;;;;;;33.10;14.40;;;;;;;;;;5112685;27;20042;-70
2023/02/02 05:54:00;;;;;;;33.47;14.20;;;;;;;;;;5094814;27;20050;-70
2023/02/02 05:56:25;;;;;;;36.90;14.87;;;;;;;;;;5113739;27;20035;-70
2023/02/02 05:58:51;;;;;;;34.47;14.33;;;;;;;;;;5096358;27;20472;-70
2023/02/02 06:01:20;;;;;;;32.77;14.57;;;;;;;;;;5094165;27;20027;-70
2023/02/02 06:03:48;;;;;;;37.97;14.30;;;;;;;;;;5136192;27;20087;-68
2023/02/02 06:06:14;;;;;;;33.13;14.47;;;;;;;;;;5093789;27;20447;-68
2023/02/02 06:08:40;;;;;;;30.33;13.70;;;;;;;;;;5096596;27;20060;-68
2023/02/02 06:11:09;;;;;;;32.80;14.07;;;;;;;;;;5112497;27;20031;-70
2023/02/02 06:13:35;;;;;;;29.97;13.47;;;;;;;;;;5110021;27;20054;-70
2023/02/02 06:16:01;;;;;;;36.17;14.50;;;;;;;;;;5096400;27;20027;-70
2023/02/02 06:18:26;;;;;;;33.20;14.77;;;;;;;;;;5131398;27;20031;-70
2023/02/02 06:20:58;;;;;;;34.97;14.30;;;;;;;;;;5112985;27;20350;-69
2023/02/02 06:23:24;;;;;;;32.57;14.17;;;;;;;;;;5096057;27;20027;-70
2023/02/02 06:25:50;;;;;;;32.10;14.07;;;;;;;;;;5096197;27;20487;-70
2023/02/02 06:28:15;;;;;;;32.27;13.07;;;;;;;;;;5091763;27;20043;-71
2023/02/02 06:30:41;;;;;;;34.53;14.47;;;;;;;;;;5090044;27;20502;-70
2023/02/02 06:33:07;;;;;;;29.63;14.17;;;;;;;;;;5093776;27;20446;-70
2023/02/02 06:35:32;;;;;;;32.00;14.23;;;;;;;;;;5095969;27;20023;-70
2023/02/02 06:37:58;;;;;;;32.50;14.77;;;;;;;;;;5095751;27;20114;-70
2023/02/02 06:40:24;;;;;;;36.00;15.43;;;;;;;;;;5096442;27;20038;-70
2023/02/02 06:43:00;;;;;;;33.00;15.20;;;;;;;;;;5096002;27;20035;-70
2023/02/02 06:45:26;;;;;;;34.97;15.67;;;;;;;;;;5096408;27;20031;-70
2023/02/02 06:47:52;;;;;;;28.83;13.00;;;;;;;;;;5113905;28;20031;-70
2023/02/02 06:50:19;;;;;;;32.63;13.10;;;;;;;;;;5113945;28;20031;-70
2023/02/02 06:52:48;;;;;;;25.50;11.80;;;;;;;;;;5114174;27;20519;-70
2023/02/02 06:55:15;;;;;;;31.52;13.90;;;;;;;;;;5114159;27;20035;-70
2023/02/02 06:57:41;;;;;;;31.53;13.27;;;;;;;;;;5114184;28;20050;-70
2023/02/02 07:00:07;;;;;;;31.13;13.87;;;;;;;;;;5097728;27;20049;-70
2023/02/02 07:02:33;;;;;;;32.03;14.47;;;;;;;;;;5097794;28;20076;-70
2023/02/02 07:04:58;;;;;;;28.33;13.67;;;;;;;;;;5097435;28;20042;-70
2023/02/02 07:07:24;;;;;;;31.27;13.50;;;;;;;;;;5096798;28;20433;-71
2023/02/02 07:09:50;;;;;;;33.10;14.07;;;;;;;;;;5096333;28;20072;-67
2023/02/02 07:12:18;;;;;;;27.53;13.03;;;;;;;;;;5092791;28;20473;-68
2023/02/02 07:14:49;;;;;;;29.15;12.90;;;;;;;;;;5112657;28;20055;-70
2023/02/02 07:17:14;;;;;;;27.37;13.40;;;;;;;;;;5096728;28;20053;-69
2023/02/02 07:19:40;;;;;;;26.97;13.07;;;;;;;;;;5095959;28;20473;-70
2023/02/02 07:22:07;;;;;;;30.07;13.17;;;;;;;;;;5097147;28;20115;-71
2023/02/02 07:24:32;;;;;;;30.10;13.53;;;;;;;;;;5113608;28;20465;-70
2023/02/02 07:26:58;;;;;;;27.30;12.60;;;;;;;;;;5092173;28;20078;-69
2023/02/02 07:29:23;;;;;;;26.70;12.83;;;;;;;;;;5064594;28;20415;-69
2023/02/02 07:31:49;;;;;;;25.17;12.33;;;;;;;;;;5075301;28;20534;-69
2023/02/02 07:34:15;;;;;;;28.70;12.93;;;;;;;;;;5078942;28;20545;-71
2023/02/02 07:36:40;;;;;;;30.10;14.27;;;;;;;;;;5129518;28;20047;-70
2023/02/02 07:39:06;;;;;;;32.70;14.80;;;;;;;;;;5113924;28;20038;-70
2023/02/02 07:41:35;;;;;;;26.00;12.57;;;;;;;;;;5093716;28;20038;-70
2023/02/02 07:44:01;;;;;;;32.03;13.97;;;;;;;;;;5095591;28;20047;-69
2023/02/02 07:46:29;;;;;;;34.10;14.70;;;;;;;;;;5096284;28;20042;-70
2023/02/02 07:48:55;;;;;;;29.80;14.43;;;;;;;;;;5096729;28;20027;-69
2023/02/02 07:51:21;;;;;;;31.27;14.37;;;;;;;;;;5109572;27;20131;-69
2023/02/02 07:53:51;;;;;;;33.30;14.23;;;;;;;;;;5099619;27;20086;-69
2023/02/02 07:56:17;;;;;;;31.17;14.10;;;;;;;;;;5100177;27;20035;-69
2023/02/02 07:58:43;;;;;;;32.00;14.57;;;;;;;;;;5117249;27;20035;-67
2023/02/02 08:01:11;;;;;;;30.53;13.80;;;;;;;;;;5134423;27;20050;-66
2023/02/02 08:03:37;;;;;;;35.73;15.07;;;;;;;;;;5100601;27;20035;-68
2023/02/02 08:06:09;;;;;;;30.67;14.83;;;;;;;;;;5100427;27;20042;-68
2023/02/02 08:08:34;;;;;;;30.57;14.90;;;;;;;;;;5093505;27;20032;-69
2023/02/02 08:11:01;;;;;;;28.50;13.73;;;;;;;;;;5098473;27;20126;-70
2023/02/02 08:13:26;;;;;;;22.90;11.77;;;;;;;;;;5098735;27;20138;-66
2023/02/02 08:15:52;;;;;;;26.30;11.30;;;;;;;;;;5115584;27;20055;-66
2023/02/02 08:18:17;;;;;;;29.70;13.10;;;;;;;;;;5115933;27;20140;-68
2023/02/02 08:20:43;;;;;;;27.80;13.17;;;;;;;;;;5098009;27;20038;-66
2023/02/02 08:23:14;;;;;;;21.07;10.40;;;;;;;;;;5098341;27;20457;-65
2023/02/02 08:25:40;;;;;;;25.25;11.55;;;;;;;;;;5115411;27;20056;-66
2023/02/02 08:28:06;;;;;;;28.97;12.90;;;;;;;;;;5097517;27;20031;-66
2023/02/02 08:30:33;;;;;;;27.13;12.27;;;;;;;;;;5097198;27;20483;-66
2023/02/02 08:32:59;;;;;;;28.53;12.97;;;;;;;;;;5114088;27;20066;-65
2023/02/02 08:35:25;;;;;;;28.87;13.87;;;;;;;;;;5097687;27;20465;-67
2023/02/02 08:37:51;;;;;;;32.23;14.13;;;;;;;;;;5132616;27;20031;-65
2023/02/02 08:40:16;;;;;;;27.63;12.90;;;;;;;;;;5098014;27;20019;-66
2023/02/02 08:42:42;;;;;;;24.70;12.57;;;;;;;;;;5078707;28;20042;-66
2023/02/02 08:45:08;;;;;;;26.07;12.70;;;;;;;;;;5062314;28;20036;-66
2023/02/02 08:47:34;;;;;;;27.10;12.63;;;;;;;;;;5066812;27;20041;-65
2023/02/02 08:49:59;;;;;;;29.43;13.03;;;;;;;;;;5097115;27;20031;-65
2023/02/02 08:52:25;;;;;;;24.37;12.43;;;;;;;;;;5094717;27;20513;-66
2023/02/02 08:54:50;;;;;;;27.67;13.10;;;;;;;;;;5097666;27;20060;-66
2023/02/02 08:57:16;;;;;;;28.50;12.93;;;;;;;;;;5096417;27;20031;-67
2023/02/02 08:59:41;;;;;;;29.00;12.63;;;;;;;;;;5096319;27;20023;-66
2023/02/02 09:02:08;;;;;;;23.43;11.37;;;;;;;;;;5096613;27;20129;-66
2023/02/02 09:04:34;;;;;;;27.80;13.77;;;;;;;;;;5099214;27;20031;-66
2023/02/02 09:07:00;;;;;;;23.40;12.07;;;;;;;;;;5098961;27;20046;-66
2023/02/02 09:09:25;;;;;;;25.43;11.93;;;;;;;;;;5098001;27;20031;-66
2023/02/02 09:11:51;;;;;;;21.80;11.90;;;;;;;;;;5114200;27;20389;-65
2023/02/02 09:14:17;;;;;;;27.20;12.10;;;;;;;;;;5097048;27;20047;-65
2023/02/02 09:16:43;;;;;;;25.97;12.50;;;;;;;;;;5112980;27;20043;-66
2023/02/02 09:19:09;;;;;;;24.30;12.67;;;;;;;;;;5097081;27;20034;-66
2023/02/02 09:21:35;;;;;;;25.37;13.30;;;;;;;;;;5097452;27;20075;-66
2023/02/02 09:24:05;;;;;;;24.43;12.37;;;;;;;;;;5114510;27;20039;-65
2023/02/02 09:26:31;;;;;;;23.60;12.77;;;;;;;;;;5097028;27;20046;-66
2023/02/02 09:28:58;;;;;;;26.27;13.27;;;;;;;;;;5080143;27;20027;-64
2023/02/02 09:31:24;;;;;;;25.97;13.13;;;;;;;;;;5094928;27;20034;-65
2023/02/02 09:33:50;;;;;;;27.93;12.63;;;;;;;;;;5096731;27;20069;-65
2023/02/02 09:36:19;;;;;;;23.93;12.60;;;;;;;;;;5113743;27;20058;-65
2023/02/02 09:38:44;;;;;;;21.57;12.40;;;;;;;;;;5114081;27;20033;-65
2023/02/02 09:41:16;;;;;;;25.27;13.37;;;;;;;;;;5096626;27;20023;-65
2023/02/02 09:44:01;;;;;;;24.67;12.53;;;;;;;;;;5096654;27;20088;-65
2023/02/02 09:46:45;;;;;;;27.03;14.40;;;;;;;;;;5096528;27;20042;-65
2023/02/02 09:49:16;;;;;;;26.90;13.07;;;;;;;;;;5113015;27;20035;-66
2023/02/02 09:51:48;;;;;;;25.17;13.13;;;;;;;;;;5095586;27;20133;-65
2023/02/02 09:54:18;;;;;;;28.03;14.17;;;;;;;;;;5093822;27;20076;-64
2023/02/02 09:56:45;;;;;;;33.63;14.70;;;;;;;;;;5111337;27;20058;-65
2023/02/02 09:59:16;;;;;;;30.87;14.97;;;;;;;;;;5095408;27;20050;-64
2023/02/02 10:01:43;;;;;;;26.87;14.37;;;;;;;;;;5094861;27;20045;-65
2023/02/02 10:04:29;;;;;;;34.90;16.80;;;;;;;;;;5113579;27;20468;-66
2023/02/02 10:07:00;;;;;;;29.30;13.10;;;;;;;;;;5094272;27;20032;-66
2023/02/02 10:09:32;;;;;;;26.65;13.32;;;;;;;;;;5096320;27;20023;-65
2023/02/02 10:12:10;;;;;;;29.77;14.23;;;;;;;;;;5110568;27;20041;-65
2023/02/02 10:14:45;;;;;;;28.67;14.20;;;;;;;;;;5091035;28;20048;-65
2023/02/02 10:17:24;;;;;;;28.33;13.87;;;;;;;;;;5096079;27;20130;-65
2023/02/02 10:19:53;;;;;;;28.30;14.03;;;;;;;;;;5112960;27;20031;-65
2023/02/02 10:22:21;;;;;;;26.43;12.97;;;;;;;;;;5096245;27;20027;-65
2023/02/02 10:24:47;;;;;;;23.77;12.73;;;;;;;;;;5113164;27;20051;-66
2023/02/02 10:27:15;;;;;;;25.57;13.17;;;;;;;;;;5090088;27;20119;-67
2023/02/02 10:29:50;;;;;;;21.60;11.53;;;;;;;;;;5094869;27;20046;-68
2023/02/02 10:32:41;;;;;;;23.47;12.13;;;;;;;;;;5094443;27;20035;-68
2023/02/02 10:35:07;;;;;;;;;;;;;;;;;;5079161;27;20172;-68
2023/02/02 10:37:55;;;;;;;25.60;11.97;;;;;;;;;;5107796;28;20017;-67
2023/02/02 10:40:21;;;;;;;21.60;12.20;;;;;;;;;;5077131;27;20546;-67
2023/02/02 10:45:39;;;;;;;26.48;12.52;;;;;;;;;;5108175;27;20039;-67
2023/02/02 10:48:12;;;;;;;25.03;12.27;;;;;;;;;;5095781;28;20028;-67
2023/02/02 10:50:41;;;;;;;28.17;13.23;;;;;;;;;;5093388;28;20031;-66
2023/02/02 10:53:11;;;;;;;25.90;11.77;;;;;;;;;;5094718;27;20072;-67
2023/02/02 10:55:59;;;;;;;21.05;11.32;;;;;;;;;;5093782;28;20043;-66
2023/02/02 10:58:32;;;;;;;23.43;11.87;;;;;;;;;;5078296;27;20049;-65
2023/02/02 11:01:00;;;;;;;27.07;12.33;;;;;;;;;;5111931;28;20110;-64
2023/02/02 11:03:30;;;;;;;22.93;12.10;;;;;;;;;;5108460;28;20039;-67
2023/02/02 11:08:43;;;;;;;26.53;12.70;;;;;;;;;;5111368;28;20050;-66
2023/02/02 11:11:21;;;;;;;26.93;13.03;;;;;;;;;;5094604;28;20126;-67
2023/02/02 11:14:05;;;;;;;28.10;14.00;;;;;;;;;;5106340;28;20047;-66
2023/02/02 11:16:32;;;;;;;31.90;14.40;;;;;;;;;;5092658;28;20031;-65
2023/02/02 11:18:58;;;;;;;24.80;13.53;;;;;;;;;;5094825;28;20035;-66
2023/02/02 11:21:28;;;;;;;26.23;12.70;;;;;;;;;;5130371;28;20035;-65
2023/02/02 11:24:18;;;;;;;28.77;12.37;;;;;;;;;;5095396;28;20035;-65
2023/02/02 11:26:55;;;;;;;25.53;12.30;;;;;;;;;;5094965;27;20083;-65
2023/02/02 11:29:32;;;;;;;23.73;12.13;;;;;;;;;;5098303;27;20109;-65
2023/02/02 11:32:15;;;;;;;22.63;12.40;;;;;;;;;;5097041;27;20032;-65
2023/02/02 11:34:42;;;;;;;23.67;12.27;;;;;;;;;;5079256;27;20043;-66
2023/02/02 11:37:20;;;;;;;23.67;11.80;;;;;;;;;;5109472;27;20024;-67
2023/02/02 11:39:46;;;;;;;25.10;13.53;;;;;;;;;;5107559;27;20026;-66
2023/02/02 11:42:22;;;;;;;22.93;11.40;;;;;;;;;;5115656;27;20470;-66
2023/02/02 11:44:49;;;;;;;26.23;13.23;;;;;;;;;;5096486;27;20031;-67
2023/02/02 11:47:26;;;;;;;25.83;12.40;;;;;;;;;;5095097;28;20039;-67
2023/02/02 11:49:53;;;;;;;29.40;13.70;;;;;;;;;;5063241;28;20035;-67
2023/02/02 11:52:21;;;;;;;25.80;13.17;;;;;;;;;;5092565;27;20526;-67
2023/02/02 11:54:52;;;;;;;31.30;15.23;;;;;;;;;;5099619;27;20075;-67
2023/02/02 11:57:20;;;;;;;34.67;15.45;;;;;;;;;;5098252;27;20035;-66
2023/02/02 11:59:47;;;;;;;27.77;14.90;;;;;;;;;;5114881;27;20039;-66
2023/02/02 12:02:16;;;;;;;33.07;14.90;;;;;;;;;;5115338;27;20035;-66
2023/02/02 12:04:42;;;;;;;27.60;12.53;;;;;;;;;;5082067;27;20035;-66
2023/02/02 12:07:23;;;;;;;28.33;13.17;;;;;;;;;;5098627;27;20039;-66
2023/02/02 12:09:51;;;;;;;29.20;13.20;;;;;;;;;;5082967;27;20155;-65
2023/02/02 12:12:23;;;;;;;25.80;12.60;;;;;;;;;;5098611;27;20039;-65
2023/02/02 12:15:12;;;;;;;27.87;12.90;;;;;;;;;;5082518;27;20054;-66
2023/02/02 12:17:37;;;;;;;28.93;13.97;;;;;;;;;;5049665;28;20040;-67
2023/02/02 12:20:03;;;;;;;28.47;14.20;;;;;;;;;;5079539;28;20172;-67
2023/02/02 12:22:29;;;;;;;23.47;10.90;;;;;;;;;;5078544;28;20126;-66
2023/02/02 12:24:54;;;;;;;30.30;14.30;;;;;;;;;;5079408;28;20495;-67
2023/02/02 12:27:34;;;;;;;30.03;14.37;;;;;;;;;;5078432;28;20047;-67
2023/02/02 12:30:00;;;;;;;33.20;13.97;;;;;;;;;;5096056;28;20412;-66
2023/02/02 12:32:25;;;;;;;30.33;14.60;;;;;;;;;;5088006;28;20043;-66
2023/02/02 12:35:10;;;;;;;34.03;14.93;;;;;;;;;;5079890;27;20077;-66
2023/02/02 12:38:04;;;;;;;28.67;13.03;;;;;;;;;;5074523;28;20130;-67
2023/02/02 12:40:39;;;;;;;32.13;14.17;;;;;;;;;;5052952;28;20567;-66
2023/02/02 12:43:37;;;;;;;31.60;15.90;;;;;;;;;;5070759;28;20089;-66
2023/02/02 12:46:06;;;;;;;31.23;14.13;;;;;;;;;;5034223;28;20043;-66
2023/02/02 12:48:38;;;;;;;32.40;14.57;;;;;;;;;;5087919;27;20479;-67
2023/02/02 12:51:10;;;;;;;31.13;14.63;;;;;;;;;;5112176;28;20023;-66
2023/02/02 12:53:42;;;;;;;33.50;15.30;;;;;;;;;;5080407;27;20042;-66
2023/02/02 12:56:10;;;;;;;31.17;14.57;;;;;;;;;;5112691;27;20092;-66
2023/02/02 12:58:58;;;;;;;32.80;15.00;;;;;;;;;;5080485;27;20423;-66
2023/02/02 13:01:30;;;;;;;35.60;15.43;;;;;;;;;;5094714;27;20485;-66
2023/02/02 13:04:05;;;;;;;34.53;15.27;;;;;;;;;;5076017;27;20046;-67
2023/02/02 13:06:44;;;;;;;36.33;15.77;;;;;;;;;;5110879;27;20465;-66
2023/02/02 13:09:31;;;;;;;33.50;16.13;;;;;;;;;;5104681;27;20028;-66
2023/02/02 13:12:00;;;;;;;32.90;15.27;;;;;;;;;;5091496;27;20040;-66
2023/02/02 13:14:35;;;;;;;33.93;14.90;;;;;;;;;;5077032;27;20047;-66
2023/02/02 13:17:07;;;;;;;34.10;15.63;;;;;;;;;;5097146;27;20042;-67
2023/02/02 13:19:47;;;;;;;32.67;15.17;;;;;;;;;;5096384;27;20064;-66
2023/02/02 13:22:20;;;;;;;37.03;15.35;;;;;;;;;;5110888;27;20053;-65
2023/02/02 13:24:48;;;;;;;31.47;15.53;;;;;;;;;;5091362;27;20038;-66
2023/02/02 13:27:16;;;;;;;33.37;14.93;;;;;;;;;;5095730;27;20473;-66
2023/02/02 13:29:45;;;;;;;39.40;16.07;;;;;;;;;;5078853;27;20034;-66
2023/02/02 13:32:29;;;;;;;37.53;15.60;;;;;;;;;;5090135;27;20020;-66
2023/02/02 13:35:04;;;;;;;36.63;15.67;;;;;;;;;;5076715;28;20126;-65
2023/02/02 13:37:36;;;;;;;36.03;15.40;;;;;;;;;;5060169;28;20043;-66
2023/02/02 13:40:05;;;;;;;33.30;14.27;;;;;;;;;;5076513;28;20073;-66
2023/02/02 13:42:31;;;;;;;34.83;15.10;;;;;;;;;;5083002;27;20074;-65
2023/02/02 13:45:00;;;;;;;38.07;16.33;;;;;;;;;;5079342;27;20058;-65
2023/02/02 13:47:33;;;;;;;40.57;17.13;;;;;;;;;;5095675;27;20039;-65
2023/02/02 13:50:04;;;;;;;36.03;15.83;;;;;;;;;;5094601;27;20046;-66
2023/02/02 13:52:33;;;;;;;35.83;15.23;;;;;;;;;;5094044;27;20043;-66
2023/02/02 13:55:01;;;;;;;36.57;16.20;;;;;;;;;;5078556;27;20031;-66
2023/02/02 13:57:47;;;;;;;38.15;16.17;;;;;;;;;;5092528;27;20032;-66
2023/02/02 14:00:13;;;;;;;39.67;16.70;;;;;;;;;;5088592;27;20026;-66
2023/02/02 14:02:47;;;;;;;43.40;17.70;;;;;;;;;;5079575;27;20483;-65
2023/02/02 14:05:27;;;;;;;39.93;16.03;;;;;;;;;;5092468;27;20451;-65
2023/02/02 14:07:55;;;;;;;39.77;16.67;;;;;;;;;;5112885;27;20019;-65
2023/02/02 14:10:23;;;;;;;37.13;16.17;;;;;;;;;;5094907;27;20296;-66
2023/02/02 14:12:49;;;;;;;36.37;16.77;;;;;;;;;;5111893;27;20039;-65
2023/02/02 14:15:14;;;;;;;35.57;15.83;;;;;;;;;;5076018;28;20113;-66
2023/02/02 14:17:40;;;;;;;40.00;16.37;;;;;;;;;;5089287;28;20039;-66
2023/02/02 14:20:26;;;;;;;40.17;17.13;;;;;;;;;;5055872;28;20043;-65
2023/02/02 14:22:53;;;;;;;38.53;16.33;;;;;;;;;;5070321;28;20038;-65
2023/02/02 14:25:28;;;;;;;38.10;14.90;;;;;;;;;;5071984;28;20382;-65
2023/02/02 14:27:58;;;;;;;30.17;14.00;;;;;;;;;;5071725;28;20386;-65
2023/02/02 14:30:26;;;;;;;33.65;15.43;;;;;;;;;;5103276;28;20051;-65
2023/02/02 14:32:52;;;;;;;33.03;14.93;;;;;;;;;;5054995;28;20137;-65
2023/02/02 14:35:24;;;;;;;37.07;16.27;;;;;;;;;;5055462;28;20129;-66
2023/02/02 14:38:11;;;;;;;35.57;16.33;;;;;;;;;;5057394;28;20040;-67
2023/02/02 14:40:47;;;;;;;35.40;16.00;;;;;;;;;;5071722;28;20044;-65
2023/02/02 14:43:43;;;;;;;32.37;15.47;;;;;;;;;;5084799;28;20135;-65
2023/02/02 14:46:12;;;;;;;34.00;15.73;;;;;;;;;;5052166;28;20054;-65